sensor_id;sensor_type;location;lat;lon;timestamp;temperature;humidity
14057;DHT22;7103;54.300;10.180;2024-03-23T00:51:28;6.10;99.90
14057;DHT22;7103;54.300;10.180;2024-03-23T00:56:20;6.10;99.90
14057;DHT22;7103;54.300;10.180;2024-03-23T00:58:46;6.10;99.90
14057;DHT22;7103;54.300;10.180;2024-03-23T01:01:12;6.00;99.90
14057;DHT22;7103;54.300;10.180;2024-03-23T01:03:38;6.10;99.90
14057;DHT22;7103;54.300;10.180;2024-03-23T01:06:04;6.00;99.90
14057;DHT22;7103;54.300;10.180;2024-03-23T01:08:30;6.00;99.90
14057;DHT22;7103;54.300;10.180;2024-03-23T01:11:00;5.90;99.90
14057;DHT22;7103;54.300;10.180;2024-03-23T01:13:27;5.90;99.90
14057;DHT22;7103;54.300;10.180;2024-03-23T01:15:55;5.90;99.90
14057;DHT22;7103;54.300;10.180;2024-03-23T01:18:22;5.80;99.90
14057;DHT22;7103;54.300;10.180;2024-03-23T01:20:49;5.90;99.90
14057;DHT22;7103;54.300;10.180;2024-03-23T01:23:15;6.00;99.90
14057;DHT22;7103;54.300;10.180;2024-03-23T01:25:41;5.80;99.90
14057;DHT22;7103;54.300;10.180;2024-03-23T01:28:07;5.90;99.90
14057;DHT22;7103;54.300;10.180;2024-03-23T01:30:34;5.80;99.90
14057;DHT22;7103;54.300;10.180;2024-03-23T01:33:01;5.90;99.90
14057;DHT22;7103;54.300;10.180;2024-03-23T01:35:28;5.70;99.90
14057;DHT22;7103;54.300;10.180;2024-03-23T01:37:55;5.90;99.90
14057;DHT22;7103;54.300;10.180;2024-03-23T01:40:21;5.90;99.90
14057;DHT22;7103;54.300;10.180;2024-03-23T01:43:07;5.80;99.90
14057;DHT22;7103;54.300;10.180;2024-03-23T01:45:36;5.80;99.90
14057;DHT22;7103;54.300;10.180;2024-03-23T01:48:02;5.70;99.90
14057;DHT22;7103;54.300;10.180;2024-03-23T01:50:29;5.70;99.90
14057;DHT22;7103;54.300;10.180;2024-03-23T01:53:02;5.70;99.90
14057;DHT22;7103;54.300;10.180;2024-03-23T01:55:32;5.60;99.90
14057;DHT22;7103;54.300;10.180;2024-03-23T01:57:58;5.70;99.90
14057;DHT22;7103;54.300;10.180;2024-03-23T02:00:24;5.50;99.90
14057;DHT22;7103;54.300;10.180;2024-03-23T02:02:51;5.70;99.90
14057;DHT22;7103;54.300;10.180;2024-03-23T02:05:17;5.70;99.90
14057;DHT22;7103;54.300;10.180;2024-03-23T02:07:43;5.60;99.90
14057;DHT22;7103;54.300;10.180;2024-03-23T02:10:10;5.50;99.90
14057;DHT22;7103;54.300;10.180;2024-03-23T02:12:39;5.60;99.90
14057;DHT22;7103;54.300;10.180;2024-03-23T02:15:05;5.60;99.90
14057;DHT22;7103;54.300;10.180;2024-03-23T02:17:33;5.50;99.90
14057;DHT22;7103;54.300;10.180;2024-03-23T02:20:00;5.40;99.90
14057;DHT22;7103;54.300;10.180;2024-03-23T02:22:36;5.40;99.90
14057;DHT22;7103;54.300;10.180;2024-03-23T02:25:06;5.40;99.90
14057;DHT22;7103;54.300;10.180;2024-03-23T02:27:33;5.20;99.90
14057;DHT22;7103;54.300;10.180;2024-03-23T02:30:00;5.10;99.90
14057;DHT22;7103;54.300;10.180;2024-03-23T02:32:26;5.10;99.90
14057;DHT22;7103;54.300;10.180;2024-03-23T02:34:52;5.10;99.90
14057;DHT22;7103;54.300;10.180;2024-03-23T02:37:18;5.10;99.90
14057;DHT22;7103;54.300;10.180;2024-03-23T02:39:44;4.90;99.90
14057;DHT22;7103;54.300;10.180;2024-03-23T02:42:10;4.90;99.90
14057;DHT22;7103;54.300;10.180;2024-03-23T02:44:37;4.90;99.90
14057;DHT22;7103;54.300;10.180;2024-03-23T02:47:03;5.00;99.90
14057;DHT22;7103;54.300;10.180;2024-03-23T02:49:29;5.00;99.90
14057;DHT22;7103;54.300;10.180;2024-03-23T02:51:55;5.00;99.90
14057;DHT22;7103;54.300;10.180;2024-03-23T02:54:21;5.00;99.90
14057;DHT22;7103;54.300;10.180;2024-03-23T02:56:47;5.00;99.90
14057;DHT22;7103;54.300;10.180;2024-03-23T02:59:13;4.90;99.90
14057;DHT22;7103;54.300;10.180;2024-03-23T03:01:39;4.80;99.90
14057;DHT22;7103;54.300;10.180;2024-03-23T03:04:05;4.90;99.90
14057;DHT22;7103;54.300;10.180;2024-03-23T03:06:31;4.90;99.90
14057;DHT22;7103;54.300;10.180;2024-03-23T03:08:57;4.80;99.90
14057;DHT22;7103;54.300;10.180;2024-03-23T03:11:23;4.80;99.90
14057;DHT22;7103;54.300;10.180;2024-03-23T03:13:50;4.70;99.90
14057;DHT22;7103;54.300;10.180;2024-03-23T03:16:16;4.60;99.90
14057;DHT22;7103;54.300;10.180;2024-03-23T03:18:42;4.80;99.90
14057;DHT22;7103;54.300;10.180;2024-03-23T03:21:08;4.80;99.90
14057;DHT22;7103;54.300;10.180;2024-03-23T03:23:41;4.80;99.90
14057;DHT22;7103;54.300;10.180;2024-03-23T03:26:08;4.60;99.90
14057;DHT22;7103;54.300;10.180;2024-03-23T03:28:34;4.60;99.90
14057;DHT22;7103;54.300;10.180;2024-03-23T03:31:00;4.70;99.90
14057;DHT22;7103;54.300;10.180;2024-03-23T03:33:27;4.70;99.90
14057;DHT22;7103;54.300;10.180;2024-03-23T03:35:54;4.80;99.90
14057;DHT22;7103;54.300;10.180;2024-03-23T03:38:20;4.90;99.90
14057;DHT22;7103;54.300;10.180;2024-03-23T03:40:46;4.80;99.90
14057;DHT22;7103;54.300;10.180;2024-03-23T03:43:12;4.70;99.90
14057;DHT22;7103;54.300;10.180;2024-03-23T03:45:38;4.80;99.90
14057;DHT22;7103;54.300;10.180;2024-03-23T03:48:05;4.80;99.90
14057;DHT22;7103;54.300;10.180;2024-03-23T03:50:31;4.80;99.90
14057;DHT22;7103;54.300;10.180;2024-03-23T03:52:57;4.70;99.90
14057;DHT22;7103;54.300;10.180;2024-03-23T03:55:23;4.70;99.90
14057;DHT22;7103;54.300;10.180;2024-03-23T03:57:49;4.70;99.90
14057;DHT22;7103;54.300;10.180;2024-03-23T04:00:15;4.70;99.90
14057;DHT22;7103;54.300;10.180;2024-03-23T04:02:41;4.60;99.90
14057;DHT22;7103;54.300;10.180;2024-03-23T04:05:07;4.60;99.90
14057;DHT22;7103;54.300;10.180;2024-03-23T04:07:34;4.60;99.90
14057;DHT22;7103;54.300;10.180;2024-03-23T04:10:00;4.50;99.90
14057;DHT22;7103;54.300;10.180;2024-03-23T04:12:26;4.50;99.90
14057;DHT22;7103;54.300;10.180;2024-03-23T04:14:52;4.60;99.90
14057;DHT22;7103;54.300;10.180;2024-03-23T04:17:19;4.50;99.90
14057;DHT22;7103;54.300;10.180;2024-03-23T04:19:45;4.60;99.90
14057;DHT22;7103;54.300;10.180;2024-03-23T04:22:11;4.70;1.00
14057;DHT22;7103;54.300;10.180;2024-03-23T04:24:37;4.90;1.00
14057;DHT22;7103;54.300;10.180;2024-03-23T04:27:03;4.80;1.00
14057;DHT22;7103;54.300;10.180;2024-03-23T04:29:29;4.70;1.00
14057;DHT22;7103;54.300;10.180;2024-03-23T04:31:55;4.80;1.00
14057;DHT22;7103;54.300;10.180;2024-03-23T04:34:22;4.90;1.00
14057;DHT22;7103;54.300;10.180;2024-03-23T04:36:49;4.90;1.00
14057;DHT22;7103;54.300;10.180;2024-03-23T04:39:15;4.80;1.00
14057;DHT22;7103;54.300;10.180;2024-03-23T04:41:41;4.70;1.00
14057;DHT22;7103;54.300;10.180;2024-03-23T04:44:07;4.90;1.00
14057;DHT22;7103;54.300;10.180;2024-03-23T04:46:33;4.80;1.00
14057;DHT22;7103;54.300;10.180;2024-03-23T04:48:59;4.70;1.00
14057;DHT22;7103;54.300;10.180;2024-03-23T04:51:25;4.80;1.00
14057;DHT22;7103;54.300;10.180;2024-03-23T04:53:52;4.70;1.00
14057;DHT22;7103;54.300;10.180;2024-03-23T04:56:18;4.70;1.00
14057;DHT22;7103;54.300;10.180;2024-03-23T04:58:44;4.80;1.00
14057;DHT22;7103;54.300;10.180;2024-03-23T05:01:11;4.70;1.00
14057;DHT22;7103;54.300;10.180;2024-03-23T05:03:38;4.50;1.00
14057;DHT22;7103;54.300;10.180;2024-03-23T05:06:04;4.70;1.00
14057;DHT22;7103;54.300;10.180;2024-03-23T05:08:31;4.70;1.00
14057;DHT22;7103;54.300;10.180;2024-03-23T05:10:57;4.80;1.00
14057;DHT22;7103;54.300;10.180;2024-03-23T05:13:23;4.70;1.00
14057;DHT22;7103;54.300;10.180;2024-03-23T05:15:55;4.70;1.00
14057;DHT22;7103;54.300;10.180;2024-03-23T05:18:22;4.60;1.00
14057;DHT22;7103;54.300;10.180;2024-03-23T05:20:48;4.90;1.00
14057;DHT22;7103;54.300;10.180;2024-03-23T05:23:14;4.70;1.00
14057;DHT22;7103;54.300;10.180;2024-03-23T05:25:40;4.70;1.00
14057;DHT22;7103;54.300;10.180;2024-03-23T05:28:06;4.70;1.00
14057;DHT22;7103;54.300;10.180;2024-03-23T05:30:32;4.60;1.00
14057;DHT22;7103;54.300;10.180;2024-03-23T05:32:59;4.70;1.00
14057;DHT22;7103;54.300;10.180;2024-03-23T05:35:25;4.80;1.00
14057;DHT22;7103;54.300;10.180;2024-03-23T05:37:51;4.70;1.00
14057;DHT22;7103;54.300;10.180;2024-03-23T05:40:17;4.70;1.00
14057;DHT22;7103;54.300;10.180;2024-03-23T05:42:43;4.70;1.00
14057;DHT22;7103;54.300;10.180;2024-03-23T05:45:09;4.90;1.00
14057;DHT22;7103;54.300;10.180;2024-03-23T05:47:35;4.90;1.00
14057;DHT22;7103;54.300;10.180;2024-03-23T05:50:01;5.00;1.00
14057;DHT22;7103;54.300;10.180;2024-03-23T05:52:28;4.90;1.00
14057;DHT22;7103;54.300;10.180;2024-03-23T05:54:54;5.00;1.00
14057;DHT22;7103;54.300;10.180;2024-03-23T05:57:20;5.10;1.00
14057;DHT22;7103;54.300;10.180;2024-03-23T05:59:46;5.10;1.00
14057;DHT22;7103;54.300;10.180;2024-03-23T06:02:12;5.10;1.00
14057;DHT22;7103;54.300;10.180;2024-03-23T06:04:38;5.20;1.00
14057;DHT22;7103;54.300;10.180;2024-03-23T06:07:04;5.20;1.00
14057;DHT22;7103;54.300;10.180;2024-03-23T06:09:40;5.20;1.00
14057;DHT22;7103;54.300;10.180;2024-03-23T06:12:08;5.10;1.00
14057;DHT22;7103;54.300;10.180;2024-03-23T06:14:34;5.10;1.00
14057;DHT22;7103;54.300;10.180;2024-03-23T06:17:00;5.20;1.00
14057;DHT22;7103;54.300;10.180;2024-03-23T06:19:27;5.20;1.00
14057;DHT22;7103;54.300;10.180;2024-03-23T06:21:54;5.30;1.00
14057;DHT22;7103;54.300;10.180;2024-03-23T06:24:23;5.30;1.00
14057;DHT22;7103;54.300;10.180;2024-03-23T06:26:50;5.30;1.00
14057;DHT22;7103;54.300;10.180;2024-03-23T06:29:16;5.40;1.00
14057;DHT22;7103;54.300;10.180;2024-03-23T06:31:42;5.50;1.00
14057;DHT22;7103;54.300;10.180;2024-03-23T06:34:08;5.30;1.00
14057;DHT22;7103;54.300;10.180;2024-03-23T06:36:34;5.40;1.00
14057;DHT22;7103;54.300;10.180;2024-03-23T06:39:00;5.40;1.00
14057;DHT22;7103;54.300;10.180;2024-03-23T06:41:26;5.30;1.00
14057;DHT22;7103;54.300;10.180;2024-03-23T06:43:52;5.30;1.00
14057;DHT22;7103;54.300;10.180;2024-03-23T06:46:18;5.30;1.00
14057;DHT22;7103;54.300;10.180;2024-03-23T06:48:45;5.40;1.00
14057;DHT22;7103;54.300;10.180;2024-03-23T06:51:11;5.20;1.00
14057;DHT22;7103;54.300;10.180;2024-03-23T06:53:37;5.40;1.00
14057;DHT22;7103;54.300;10.180;2024-03-23T06:56:03;5.40;1.00
14057;DHT22;7103;54.300;10.180;2024-03-23T06:58:29;5.70;1.00
14057;DHT22;7103;54.300;10.180;2024-03-23T07:00:55;6.00;1.00
14057;DHT22;7103;54.300;10.180;2024-03-23T07:03:21;6.20;1.00
14057;DHT22;7103;54.300;10.180;2024-03-23T07:05:48;6.20;1.00
14057;DHT22;7103;54.300;10.180;2024-03-23T07:08:14;6.40;1.00
14057;DHT22;7103;54.300;10.180;2024-03-23T07:10:46;6.50;1.00
14057;DHT22;7103;54.300;10.180;2024-03-23T07:13:12;6.80;1.00
14057;DHT22;7103;54.300;10.180;2024-03-23T07:15:38;7.00;1.00
14057;DHT22;7103;54.300;10.180;2024-03-23T07:18:05;7.10;1.00
14057;DHT22;7103;54.300;10.180;2024-03-23T07:20:31;7.20;1.00
14057;DHT22;7103;54.300;10.180;2024-03-23T07:22:57;7.30;1.00
14057;DHT22;7103;54.300;10.180;2024-03-23T07:25:23;7.60;1.00
14057;DHT22;7103;54.300;10.180;2024-03-23T07:27:54;7.70;1.00
14057;DHT22;7103;54.300;10.180;2024-03-23T07:30:21;7.70;1.00
14057;DHT22;7103;54.300;10.180;2024-03-23T07:32:47;7.80;1.00
14057;DHT22;7103;54.300;10.180;2024-03-23T07:35:13;7.90;1.00
14057;DHT22;7103;54.300;10.180;2024-03-23T07:37:39;8.10;1.00
14057;DHT22;7103;54.300;10.180;2024-03-23T07:40:06;8.20;1.00
14057;DHT22;7103;54.300;10.180;2024-03-23T07:42:33;8.30;1.00
14057;DHT22;7103;54.300;10.180;2024-03-23T07:44:59;8.40;1.00
14057;DHT22;7103;54.300;10.180;2024-03-23T07:47:25;8.80;99.90
14057;DHT22;7103;54.300;10.180;2024-03-23T07:49:51;9.50;99.90
14057;DHT22;7103;54.300;10.180;2024-03-23T07:52:18;10.30;99.90
14057;DHT22;7103;54.300;10.180;2024-03-23T07:54:44;11.10;99.90
14057;DHT22;7103;54.300;10.180;2024-03-23T07:57:10;11.40;99.90
14057;DHT22;7103;54.300;10.180;2024-03-23T07:59:36;11.90;99.90
14057;DHT22;7103;54.300;10.180;2024-03-23T08:02:02;12.00;94.10
14057;DHT22;7103;54.300;10.180;2024-03-23T08:04:28;11.80;26.10
14057;DHT22;7103;54.300;10.180;2024-03-23T08:06:54;12.00;1.50
14057;DHT22;7103;54.300;10.180;2024-03-23T08:09:20;12.60;1.00
14057;DHT22;7103;54.300;10.180;2024-03-23T08:11:46;13.20;1.00
14057;DHT22;7103;54.300;10.180;2024-03-23T08:14:12;13.00;1.00
14057;DHT22;7103;54.300;10.180;2024-03-23T08:16:38;12.90;1.00
14057;DHT22;7103;54.300;10.180;2024-03-23T08:19:04;12.60;1.00
14057;DHT22;7103;54.300;10.180;2024-03-23T08:21:32;12.50;1.00
14057;DHT22;7103;54.300;10.180;2024-03-23T08:23:58;13.00;1.00
14057;DHT22;7103;54.300;10.180;2024-03-23T08:26:24;13.60;1.00
14057;DHT22;7103;54.300;10.180;2024-03-23T08:28:50;13.60;1.00
14057;DHT22;7103;54.300;10.180;2024-03-23T08:31:16;13.10;1.00
14057;DHT22;7103;54.300;10.180;2024-03-23T08:33:42;13.20;1.00
14057;DHT22;7103;54.300;10.180;2024-03-23T08:36:10;13.40;1.00
14057;DHT22;7103;54.300;10.180;2024-03-23T08:38:38;13.80;1.00
14057;DHT22;7103;54.300;10.180;2024-03-23T08:41:06;13.80;1.00
14057;DHT22;7103;54.300;10.180;2024-03-23T08:43:37;13.40;1.00
14057;DHT22;7103;54.300;10.180;2024-03-23T08:46:14;13.40;1.00
14057;DHT22;7103;54.300;10.180;2024-03-23T08:48:42;13.30;1.00
14057;DHT22;7103;54.300;10.180;2024-03-23T08:51:10;13.40;1.00
14057;DHT22;7103;54.300;10.180;2024-03-23T08:53:37;13.90;1.00
14057;DHT22;7103;54.300;10.180;2024-03-23T08:56:04;14.10;1.00
14057;DHT22;7103;54.300;10.180;2024-03-23T08:58:31;14.20;1.00
14057;DHT22;7103;54.300;10.180;2024-03-23T09:01:03;13.90;1.00
14057;DHT22;7103;54.300;10.180;2024-03-23T09:03:30;14.10;1.00
14057;DHT22;7103;54.300;10.180;2024-03-23T09:05:56;14.30;1.00
14057;DHT22;7103;54.300;10.180;2024-03-23T09:08:24;14.00;1.00
14057;DHT22;7103;54.300;10.180;2024-03-23T09:10:51;13.40;1.00
14057;DHT22;7103;54.300;10.180;2024-03-23T09:13:17;13.20;1.00
14057;DHT22;7103;54.300;10.180;2024-03-23T09:18:13;14.00;1.00
14057;DHT22;7103;54.300;10.180;2024-03-23T09:20:39;14.00;1.00
14057;DHT22;7103;54.300;10.180;2024-03-23T09:23:05;13.10;1.00
14057;DHT22;7103;54.300;10.180;2024-03-23T09:25:32;12.40;1.00
14057;DHT22;7103;54.300;10.180;2024-03-23T09:27:58;12.00;1.00
14057;DHT22;7103;54.300;10.180;2024-03-23T09:30:24;11.60;1.00
14057;DHT22;7103;54.300;10.180;2024-03-23T09:32:50;11.10;1.00
14057;DHT22;7103;54.300;10.180;2024-03-23T09:35:16;10.60;1.00
14057;DHT22;7103;54.300;10.180;2024-03-23T09:37:42;10.00;1.00
14057;DHT22;7103;54.300;10.180;2024-03-23T09:40:11;9.90;1.00
14057;DHT22;7103;54.300;10.180;2024-03-23T09:42:38;9.90;1.00
14057;DHT22;7103;54.300;10.180;2024-03-23T09:45:23;9.60;1.00
14057;DHT22;7103;54.300;10.180;2024-03-23T09:47:49;9.60;1.00
14057;DHT22;7103;54.300;10.180;2024-03-23T09:50:17;9.30;1.00
14057;DHT22;7103;54.300;10.180;2024-03-23T09:52:45;8.90;1.00
14057;DHT22;7103;54.300;10.180;2024-03-23T09:55:11;8.90;1.00
14057;DHT22;7103;54.300;10.180;2024-03-23T09:57:37;8.90;1.00
14057;DHT22;7103;54.300;10.180;2024-03-23T10:00:04;9.00;1.00
14057;DHT22;7103;54.300;10.180;2024-03-23T10:02:30;9.00;1.00
14057;DHT22;7103;54.300;10.180;2024-03-23T10:04:56;9.20;1.00
14057;DHT22;7103;54.300;10.180;2024-03-23T10:07:23;9.40;1.00
14057;DHT22;7103;54.300;10.180;2024-03-23T10:09:49;9.80;1.00
14057;DHT22;7103;54.300;10.180;2024-03-23T10:12:19;9.90;1.00
14057;DHT22;7103;54.300;10.180;2024-03-23T10:14:46;9.90;1.00
14057;DHT22;7103;54.300;10.180;2024-03-23T10:17:14;10.00;1.00
14057;DHT22;7103;54.300;10.180;2024-03-23T10:19:41;9.80;1.00
14057;DHT22;7103;54.300;10.180;2024-03-23T10:24:43;9.10;1.00
14057;DHT22;7103;54.300;10.180;2024-03-23T10:27:10;8.80;1.00
14057;DHT22;7103;54.300;10.180;2024-03-23T10:29:41;8.60;1.00
14057;DHT22;7103;54.300;10.180;2024-03-23T10:32:11;8.30;1.00
14057;DHT22;7103;54.300;10.180;2024-03-23T10:34:37;8.60;1.00
14057;DHT22;7103;54.300;10.180;2024-03-23T10:37:04;9.20;1.00
14057;DHT22;7103;54.300;10.180;2024-03-23T10:39:36;9.00;1.00
14057;DHT22;7103;54.300;10.180;2024-03-23T10:42:07;8.80;1.00
14057;DHT22;7103;54.300;10.180;2024-03-23T10:44:34;8.60;1.00
14057;DHT22;7103;54.300;10.180;2024-03-23T10:47:04;8.60;1.00
14057;DHT22;7103;54.300;10.180;2024-03-23T10:49:35;8.50;1.00
14057;DHT22;7103;54.300;10.180;2024-03-23T10:52:03;8.70;1.00
14057;DHT22;7103;54.300;10.180;2024-03-23T10:54:31;9.40;1.00
14057;DHT22;7103;54.300;10.180;2024-03-23T10:57:05;10.40;1.00
14057;DHT22;7103;54.300;10.180;2024-03-23T10:59:32;11.20;1.00
14057;DHT22;7103;54.300;10.180;2024-03-23T11:02:00;11.80;1.00
14057;DHT22;7103;54.300;10.180;2024-03-23T11:04:35;12.30;1.00
14057;DHT22;7103;54.300;10.180;2024-03-23T11:07:02;12.60;1.00
14057;DHT22;7103;54.300;10.180;2024-03-23T11:14:56;13.20;1.00
14057;DHT22;7103;54.300;10.180;2024-03-23T11:17:24;13.40;1.00
14057;DHT22;7103;54.300;10.180;2024-03-23T11:19:55;13.40;1.00
14057;DHT22;7103;54.300;10.180;2024-03-23T11:22:41;13.30;1.00
14057;DHT22;7103;54.300;10.180;2024-03-23T11:25:19;12.60;1.00
14057;DHT22;7103;54.300;10.180;2024-03-23T11:27:53;11.90;1.00
14057;DHT22;7103;54.300;10.180;2024-03-23T11:30:22;11.80;1.00
14057;DHT22;7103;54.300;10.180;2024-03-23T11:32:50;12.00;1.00
14057;DHT22;7103;54.300;10.180;2024-03-23T11:38:08;12.90;1.00
14057;DHT22;7103;54.300;10.180;2024-03-23T11:40:36;12.90;1.00
14057;DHT22;7103;54.300;10.180;2024-03-23T11:43:06;12.90;1.00
14057;DHT22;7103;54.300;10.180;2024-03-23T11:45:48;13.10;1.00
14057;DHT22;7103;54.300;10.180;2024-03-23T11:48:16;12.20;1.00
14057;DHT22;7103;54.300;10.180;2024-03-23T11:50:45;11.20;1.00
14057;DHT22;7103;54.300;10.180;2024-03-23T11:53:21;10.90;1.00
14057;DHT22;7103;54.300;10.180;2024-03-23T11:55:59;10.90;1.00
14057;DHT22;7103;54.300;10.180;2024-03-23T11:58:27;11.00;1.00
14057;DHT22;7103;54.300;10.180;2024-03-23T12:03:20;11.40;1.00
14057;DHT22;7103;54.300;10.180;2024-03-23T12:05:53;11.10;1.00
14057;DHT22;7103;54.300;10.180;2024-03-23T12:08:24;11.30;1.00
14057;DHT22;7103;54.300;10.180;2024-03-23T12:11:11;11.50;1.00
14057;DHT22;7103;54.300;10.180;2024-03-23T12:13:39;12.00;1.00
14057;DHT22;7103;54.300;10.180;2024-03-23T12:16:17;12.00;1.00
14057;DHT22;7103;54.300;10.180;2024-03-23T12:18:48;12.30;1.00
14057;DHT22;7103;54.300;10.180;2024-03-23T12:21:17;12.00;1.00
14057;DHT22;7103;54.300;10.180;2024-03-23T12:23:44;12.00;1.00
14057;DHT22;7103;54.300;10.180;2024-03-23T12:26:12;12.30;1.00
14057;DHT22;7103;54.300;10.180;2024-03-23T12:28:39;12.40;1.00
14057;DHT22;7103;54.300;10.180;2024-03-23T12:31:05;12.50;1.00
14057;DHT22;7103;54.300;10.180;2024-03-23T12:33:31;12.20;1.00
14057;DHT22;7103;54.300;10.180;2024-03-23T12:35:57;11.80;1.00
14057;DHT22;7103;54.300;10.180;2024-03-23T12:38:24;11.10;1.00
14057;DHT22;7103;54.300;10.180;2024-03-23T12:40:50;10.10;1.00
14057;DHT22;7103;54.300;10.180;2024-03-23T12:43:17;9.70;1.00
14057;DHT22;7103;54.300;10.180;2024-03-23T12:45:50;9.80;1.00
14057;DHT22;7103;54.300;10.180;2024-03-23T12:48:16;10.10;1.00
14057;DHT22;7103;54.300;10.180;2024-03-23T12:50:42;10.30;1.00
14057;DHT22;7103;54.300;10.180;2024-03-23T12:53:09;10.30;1.00
14057;DHT22;7103;54.300;10.180;2024-03-23T12:55:35;10.40;1.00
14057;DHT22;7103;54.300;10.180;2024-03-23T12:58:01;10.80;1.00
14057;DHT22;7103;54.300;10.180;2024-03-23T13:00:28;10.50;1.00
14057;DHT22;7103;54.300;10.180;2024-03-23T13:02:54;10.10;1.00
14057;DHT22;7103;54.300;10.180;2024-03-23T13:05:20;10.00;1.00
14057;DHT22;7103;54.300;10.180;2024-03-23T13:07:46;10.00;1.00
14057;DHT22;7103;54.300;10.180;2024-03-23T13:10:12;9.70;1.00
14057;DHT22;7103;54.300;10.180;2024-03-23T13:12:39;9.60;1.00
14057;DHT22;7103;54.300;10.180;2024-03-23T13:15:05;9.70;1.00
14057;DHT22;7103;54.300;10.180;2024-03-23T13:17:31;9.90;1.00
14057;DHT22;7103;54.300;10.180;2024-03-23T13:19:57;9.90;1.00
14057;DHT22;7103;54.300;10.180;2024-03-23T13:22:23;9.70;1.00
14057;DHT22;7103;54.300;10.180;2024-03-23T13:24:50;9.40;1.00
14057;DHT22;7103;54.300;10.180;2024-03-23T13:27:16;9.70;1.00
14057;DHT22;7103;54.300;10.180;2024-03-23T13:29:42;10.20;1.00
14057;DHT22;7103;54.300;10.180;2024-03-23T13:32:08;10.20;1.00
14057;DHT22;7103;54.300;10.180;2024-03-23T13:34:35;10.10;1.00
14057;DHT22;7103;54.300;10.180;2024-03-23T13:37:01;9.80;1.00
14057;DHT22;7103;54.300;10.180;2024-03-23T13:39:27;9.90;1.00
14057;DHT22;7103;54.300;10.180;2024-03-23T13:41:54;10.00;1.00
14057;DHT22;7103;54.300;10.180;2024-03-23T13:44:23;10.40;1.00
14057;DHT22;7103;54.300;10.180;2024-03-23T13:46:49;10.90;1.00
14057;DHT22;7103;54.300;10.180;2024-03-23T13:49:28;11.00;1.00
14057;DHT22;7103;54.300;10.180;2024-03-23T13:51:55;11.10;1.00
14057;DHT22;7103;54.300;10.180;2024-03-23T13:54:27;10.80;1.00
14057;DHT22;7103;54.300;10.180;2024-03-23T13:56:55;10.70;1.00
14057;DHT22;7103;54.300;10.180;2024-03-23T13:59:22;10.50;1.00
14057;DHT22;7103;54.300;10.180;2024-03-23T14:01:51;10.60;1.00
14057;DHT22;7103;54.300;10.180;2024-03-23T14:04:18;10.80;1.00
14057;DHT22;7103;54.300;10.180;2024-03-23T14:06:47;10.90;1.00
14057;DHT22;7103;54.300;10.180;2024-03-23T14:09:13;10.60;1.00
14057;DHT22;7103;54.300;10.180;2024-03-23T14:11:40;10.30;1.00
14057;DHT22;7103;54.300;10.180;2024-03-23T14:14:09;9.90;1.00
14057;DHT22;7103;54.300;10.180;2024-03-23T14:16:35;8.90;1.00
14057;DHT22;7103;54.300;10.180;2024-03-23T14:19:01;8.60;1.00
14057;DHT22;7103;54.300;10.180;2024-03-23T14:21:27;8.30;1.00
14057;DHT22;7103;54.300;10.180;2024-03-23T14:23:53;8.30;1.00
14057;DHT22;7103;54.300;10.180;2024-03-23T14:26:22;8.10;1.00
14057;DHT22;7103;54.300;10.180;2024-03-23T14:28:49;8.10;1.00
14057;DHT22;7103;54.300;10.180;2024-03-23T14:31:16;8.40;1.00
14057;DHT22;7103;54.300;10.180;2024-03-23T14:33:42;8.70;1.00
14057;DHT22;7103;54.300;10.180;2024-03-23T14:36:16;8.90;1.00
14057;DHT22;7103;54.300;10.180;2024-03-23T14:38:47;9.10;1.00
14057;DHT22;7103;54.300;10.180;2024-03-23T14:41:14;9.20;1.00
14057;DHT22;7103;54.300;10.180;2024-03-23T14:43:40;9.40;1.00
14057;DHT22;7103;54.300;10.180;2024-03-23T14:46:11;9.30;1.00
14057;DHT22;7103;54.300;10.180;2024-03-23T14:48:39;9.30;1.00
14057;DHT22;7103;54.300;10.180;2024-03-23T14:51:05;9.20;1.00
14057;DHT22;7103;54.300;10.180;2024-03-23T14:53:32;9.10;1.00
14057;DHT22;7103;54.300;10.180;2024-03-23T14:56:00;8.90;1.00
14057;DHT22;7103;54.300;10.180;2024-03-23T14:58:27;8.90;1.00
14057;DHT22;7103;54.300;10.180;2024-03-23T15:01:08;8.90;1.00
14057;DHT22;7103;54.300;10.180;2024-03-23T15:03:36;8.90;1.00
14057;DHT22;7103;54.300;10.180;2024-03-23T15:06:02;9.20;1.00
14057;DHT22;7103;54.300;10.180;2024-03-23T15:08:29;9.30;1.00
14057;DHT22;7103;54.300;10.180;2024-03-23T15:11:00;9.40;1.00
14057;DHT22;7103;54.300;10.180;2024-03-23T15:13:34;9.20;1.00
14057;DHT22;7103;54.300;10.180;2024-03-23T15:16:01;9.00;1.00
14057;DHT22;7103;54.300;10.180;2024-03-23T15:18:30;9.00;1.00
14057;DHT22;7103;54.300;10.180;2024-03-23T15:20:59;8.90;1.00
14057;DHT22;7103;54.300;10.180;2024-03-23T15:23:32;9.00;1.00
14057;DHT22;7103;54.300;10.180;2024-03-23T15:25:59;9.20;1.00
14057;DHT22;7103;54.300;10.180;2024-03-23T15:28:26;9.40;1.00
14057;DHT22;7103;54.300;10.180;2024-03-23T15:31:09;9.50;1.00
14057;DHT22;7103;54.300;10.180;2024-03-23T15:33:36;9.70;1.00
14057;DHT22;7103;54.300;10.180;2024-03-23T15:36:02;9.70;1.00
14057;DHT22;7103;54.300;10.180;2024-03-23T15:38:30;9.30;1.00
14057;DHT22;7103;54.300;10.180;2024-03-23T15:40:57;9.10;1.00
14057;DHT22;7103;54.300;10.180;2024-03-23T15:43:23;9.10;1.00
14057;DHT22;7103;54.300;10.180;2024-03-23T15:45:57;9.30;1.00
14057;DHT22;7103;54.300;10.180;2024-03-23T15:48:27;9.40;1.00
14057;DHT22;7103;54.300;10.180;2024-03-23T15:50:54;9.30;1.00
14057;DHT22;7103;54.300;10.180;2024-03-23T15:53:21;9.20;1.00
14057;DHT22;7103;54.300;10.180;2024-03-23T15:56:00;8.90;1.00
14057;DHT22;7103;54.300;10.180;2024-03-23T15:58:27;9.00;1.00
14057;DHT22;7103;54.300;10.180;2024-03-23T16:01:04;8.80;1.00
14057;DHT22;7103;54.300;10.180;2024-03-23T16:03:44;8.70;1.00
14057;DHT22;7103;54.300;10.180;2024-03-23T16:06:14;8.80;1.00
14057;DHT22;7103;54.300;10.180;2024-03-23T16:08:40;8.70;1.00
14057;DHT22;7103;54.300;10.180;2024-03-23T16:11:07;8.80;1.00
14057;DHT22;7103;54.300;10.180;2024-03-23T16:13:35;8.60;1.00
14057;DHT22;7103;54.300;10.180;2024-03-23T16:16:02;8.60;1.00
14057;DHT22;7103;54.300;10.180;2024-03-23T16:18:30;8.70;1.00
14057;DHT22;7103;54.300;10.180;2024-03-23T16:21:01;8.70;1.00
14057;DHT22;7103;54.300;10.180;2024-03-23T16:23:28;8.60;1.00
14057;DHT22;7103;54.300;10.180;2024-03-23T16:25:55;8.60;1.00
14057;DHT22;7103;54.300;10.180;2024-03-23T16:28:25;8.70;1.00
14057;DHT22;7103;54.300;10.180;2024-03-23T16:33:24;8.50;1.00
14057;DHT22;7103;54.300;10.180;2024-03-23T16:35:57;8.30;1.00
14057;DHT22;7103;54.300;10.180;2024-03-23T16:38:24;8.30;1.00
14057;DHT22;7103;54.300;10.180;2024-03-23T16:40:57;8.30;1.00
14057;DHT22;7103;54.300;10.180;2024-03-23T16:43:24;8.20;1.00
14057;DHT22;7103;54.300;10.180;2024-03-23T16:45:59;8.30;1.00
14057;DHT22;7103;54.300;10.180;2024-03-23T16:48:28;8.20;1.00
14057;DHT22;7103;54.300;10.180;2024-03-23T16:50:57;8.20;1.00
14057;DHT22;7103;54.300;10.180;2024-03-23T16:53:23;8.20;1.00
14057;DHT22;7103;54.300;10.180;2024-03-23T16:55:55;7.80;1.00
14057;DHT22;7103;54.300;10.180;2024-03-23T16:58:28;7.60;1.00
14057;DHT22;7103;54.300;10.180;2024-03-23T17:00:56;7.50;1.00
14057;DHT22;7103;54.300;10.180;2024-03-23T17:03:26;7.40;1.00
14057;DHT22;7103;54.300;10.180;2024-03-23T17:05:52;7.40;1.00
14057;DHT22;7103;54.300;10.180;2024-03-23T17:08:19;7.40;1.00